KOCH/OCH METAR and TAF weather

Enter ICAO airport designator
Station Type Date Time Source
KOCH METAR 2020/07/08 00:19 UTC NOAA

KOCH 080019Z AUTO 17005KT 10SM SCT014 26/24 A2992 RMK AO2


Station Type Date Time Source
KOCH Decoded METAR 2020/07/08 00:19 UTC NOAA

Nacogdoches, A L Mangham Jr. Regional Airport, TX, United States (KOCH) 31-35N 094-43W
Jul 07, 2020 - 08:19 PM EDT / 2020.07.08 0019 UTC
Wind: from the S (170 degrees) at 6 MPH (5 KT):0
Visibility: 10 mile(s):0
Sky conditions: partly cloudy
Temperature: 78 F (26 C)
Dew Point: 75 F (24 C)
Relative Humidity: 88%
Pressure (altimeter): 29.92 in. Hg (1013 hPa)
ob: KOCH 080019Z AUTO 17005KT 10SM SCT014 26/24 A2992 RMK AO2
cycle: 0

Station Type Date Time Source
KOCH TAF UTC NOAA

Error!

Example: see airport list